Time;durP1;ratioP1;P1;durP2;ratioP2;P2;SDS_P1;SDS_P2;PMS_P1;PMS_P2;Temp;Humidity;BMP_temperature;BMP_pressure;BME280_temperature;BME280_humidity;BME280_pressure;Samples;Min_cycle;Max_cycle;Signal;HPM_P1;HPM_P2
2024/03/14 00:02:01;;;;;;;4.53;2.70;;;;;;;11.66;100.00;101099.97;10451983;28;20049;-74
2024/03/14 00:07:24;;;;;;;10.88;8.05;;;;;;;11.54;100.00;101099.78;10468724;28;20651;-74
2024/03/14 00:12:46;;;;;;;7.82;2.05;;;;;;;11.99;100.00;101089.06;10453205;28;20055;-75
2024/03/14 00:18:09;;;;;;;2.58;1.70;;;;;;;12.07;100.00;101087.44;10470110;28;20052;-74
2024/03/14 00:23:32;;;;;;;7.38;2.20;;;;;;;12.04;100.00;101081.19;10466624;28;20123;-74
2024/03/14 00:28:54;;;;;;;4.43;2.08;;;;;;;11.81;100.00;101086.16;10447003;28;20036;-74
2024/03/14 00:34:17;;;;;;;5.53;4.38;;;;;;;11.47;100.00;101088.22;10467754;28;20052;-74
2024/03/14 00:39:40;;;;;;;6.25;4.82;;;;;;;11.31;100.00;101082.59;10447206;28;20048;-74
2024/03/14 00:45:04;;;;;;;5.82;2.00;;;;;;;11.12;100.00;101081.41;10466854;28;20055;-75
2024/03/14 00:50:27;;;;;;;3.42;1.58;;;;;;;11.28;100.00;101074.66;10449725;28;20818;-74
2024/03/14 00:55:50;;;;;;;4.00;1.58;;;;;;;11.21;100.00;101078.94;10452418;28;20044;-74
2024/03/14 01:01:13;;;;;;;2.40;1.40;;;;;;;11.37;100.00;101077.44;10461000;28;20060;-74
2024/03/14 01:06:38;;;;;;;5.28;1.83;;;;;;;11.17;100.00;101077.97;10438143;28;20056;-74
2024/03/14 01:12:01;;;;;;;4.60;1.83;;;;;;;11.09;100.00;101073.44;10451534;28;20045;-74
2024/03/14 01:17:23;;;;;;;7.00;1.80;;;;;;;10.89;100.00;101069.53;10467023;28;20053;-75
2024/03/14 01:22:48;;;;;;;9.10;8.07;;;;;;;10.91;100.00;101068.66;10464194;28;20122;-75
2024/03/14 01:28:11;;;;;;;11.02;9.80;;;;;;;11.02;100.00;101059.22;10449905;28;20048;-74
2024/03/14 01:33:34;;;;;;;4.90;1.73;;;;;;;10.89;100.00;101043.09;10471760;28;20143;-75
2024/03/14 01:38:57;;;;;;;6.50;2.00;;;;;;;10.75;100.00;101041.09;10433665;28;20047;-74
2024/03/14 01:44:20;;;;;;;6.78;2.70;;;;;;;10.64;100.00;101047.00;10435370;28;20610;-75
2024/03/14 01:49:43;;;;;;;4.93;1.85;;;;;;;10.60;100.00;101042.53;10491295;28;20036;-74
2024/03/14 01:55:08;;;;;;;4.72;1.67;;;;;;;10.92;100.00;101051.06;10450628;28;20053;-74
2024/03/14 02:00:33;;;;;;;5.57;1.80;;;;;;;11.29;100.00;101044.72;10482756;28;20056;-75
2024/03/14 02:05:56;;;;;;;6.35;1.98;;;;;;;11.47;100.00;101050.31;10428102;28;20040;-74
2024/03/14 02:11:18;;;;;;;4.97;1.88;;;;;;;11.54;100.00;101045.16;10455100;28;20072;-74
2024/03/14 02:16:41;;;;;;;3.13;1.70;;;;;;;11.33;100.00;101041.25;10448331;28;20037;-74
2024/03/14 02:22:04;;;;;;;5.13;1.50;;;;;;;11.10;100.00;101035.56;10462141;28;20113;-74
2024/03/14 02:27:26;;;;;;;4.75;1.40;;;;;;;11.11;100.00;101038.22;10447012;28;20048;-74
2024/03/14 02:32:51;;;;;;;9.73;5.20;;;;;;;10.83;100.00;101046.50;10455978;28;20435;-74
2024/03/14 02:38:14;;;;;;;5.45;3.45;;;;;;;10.87;100.00;101052.75;10462437;28;20136;-74
2024/03/14 02:43:36;;;;;;;6.53;1.80;;;;;;;10.74;100.00;101036.69;10461925;28;20043;-74
2024/03/14 02:49:01;;;;;;;8.57;4.60;;;;;;;10.87;100.00;101053.63;10460336;28;20047;-74
2024/03/14 02:54:24;;;;;;;6.78;5.00;;;;;;;10.62;100.00;101051.38;10461933;28;20057;-74
2024/03/14 02:59:47;;;;;;;5.82;2.00;;;;;;;10.26;100.00;101048.88;10453534;28;20047;-74
2024/03/14 03:05:10;;;;;;;6.70;1.85;;;;;;;10.19;100.00;101046.94;10452230;28;20464;-74
2024/03/14 03:10:33;;;;;;;5.10;1.60;;;;;;;10.71;100.00;101055.09;10483077;28;20061;-74
2024/03/14 03:15:55;;;;;;;9.55;3.70;;;;;;;10.92;100.00;101066.91;10461415;28;20040;-75
2024/03/14 03:21:18;;;;;;;4.93;1.70;;;;;;;10.78;100.00;101050.81;10460551;28;20044;-75
2024/03/14 03:26:41;;;;;;;4.38;1.83;;;;;;;10.64;100.00;101063.75;10464359;28;20516;-74
2024/03/14 03:32:04;;;;;;;4.50;1.95;;;;;;;10.39;100.00;101077.28;10472180;28;20508;-76
2024/03/14 03:37:28;;;;;;;8.20;3.55;;;;;;;10.16;100.00;101083.81;10453513;28;20056;-74
2024/03/14 03:42:52;;;;;;;2.58;1.65;;;;;;;10.18;100.00;101080.34;10441524;28;20131;-75
2024/03/14 03:48:15;;;;;;;3.55;2.10;;;;;;;10.49;100.00;101079.28;10469931;28;20440;-74
2024/03/14 03:53:37;;;;;;;6.47;2.30;;;;;;;10.43;100.00;101080.91;10468120;28;20056;-74
2024/03/14 03:59:00;;;;;;;4.65;1.90;;;;;;;10.37;100.00;101071.97;10441019;28;20063;-74
2024/03/14 04:04:23;;;;;;;7.13;4.47;;;;;;;10.22;100.00;101082.22;10458184;28;20068;-75
2024/03/14 04:09:51;;;;;;;3.33;1.60;;;;;;;10.03;100.00;101077.38;10495180;28;20052;-74
2024/03/14 04:15:14;;;;;;;4.57;1.50;;;;;;;9.99;100.00;101084.28;10468228;28;20049;-75
2024/03/14 04:20:37;;;;;;;2.33;1.45;;;;;;;10.13;100.00;101083.72;10466992;28;20292;-74
2024/03/14 04:26:02;;;;;;;6.00;1.83;;;;;;;10.10;100.00;101096.84;10466534;28;20060;-74
2024/03/14 04:31:26;;;;;;;6.22;1.85;;;;;;;9.95;100.00;101095.63;10452969;28;20051;-74
2024/03/14 04:36:50;;;;;;;3.53;1.70;;;;;;;10.09;100.00;101109.16;10466814;28;20056;-75
2024/03/14 04:42:15;;;;;;;5.90;2.22;;;;;;;10.28;100.00;101106.09;10467145;28;20430;-74
2024/03/14 04:47:38;;;;;;;2.25;1.58;;;;;;;10.42;100.00;101102.88;10466697;28;20060;-74
2024/03/14 04:53:01;;;;;;;4.70;1.50;;;;;;;10.53;100.00;101101.34;10466586;28;20048;-75
2024/03/14 04:58:24;;;;;;;7.53;1.77;;;;;;;11.56;100.00;101098.03;10465319;28;20435;-74
2024/03/14 05:03:46;;;;;;;9.18;5.35;;;;;;;13.78;100.00;101090.28;10464204;28;20040;-75
2024/03/14 05:09:10;;;;;;;7.55;4.53;;;;;;;15.50;100.00;101094.56;10464548;28;20049;-75
2024/03/14 05:14:32;;;;;;;6.03;3.80;;;;;;;17.21;89.32;101100.41;10451388;28;20538;-74
2024/03/14 05:19:57;;;;;;;3.53;2.47;;;;;;;18.59;74.53;101099.22;10450482;28;20497;-74
2024/03/14 05:25:19;;;;;;;3.95;1.52;;;;;;;19.80;63.43;101099.31;10435395;28;20052;-75
2024/03/14 05:30:42;;;;;;;4.15;1.70;;;;;;;21.04;55.05;101102.25;10448102;28;20514;-75
2024/03/14 05:36:07;;;;;;;11.20;10.05;;;;;;;21.25;51.10;101109.00;10450945;28;20480;-75
2024/03/14 05:41:29;;;;;;;6.22;3.47;;;;;;;20.74;51.50;101118.16;10465143;28;20041;-75
2024/03/14 05:46:53;;;;;;;8.77;5.78;;;;;;;21.33;49.48;101130.31;10455109;28;20055;-75
2024/03/14 05:52:15;;;;;;;7.22;5.40;;;;;;;22.39;47.00;101138.41;10431379;28;20045;-75
2024/03/14 05:57:38;;;;;;;5.20;3.80;;;;;;;23.69;43.61;101149.00;10489471;28;20056;-75
2024/03/14 06:03:01;;;;;;;1.85;1.35;;;;;;;24.64;41.72;101144.81;10474882;28;20157;-75
2024/03/14 06:08:24;;;;;;;4.07;3.50;;;;;;;25.28;39.76;101146.00;10460959;28;20122;-75
2024/03/14 06:13:46;;;;;;;3.22;1.40;;;;;;;25.92;38.04;101150.69;10444359;28;20044;-75
2024/03/14 06:19:09;;;;;;;4.93;2.33;;;;;;;26.27;36.97;101152.78;10461873;28;20060;-75
2024/03/14 06:24:32;;;;;;;6.20;4.50;;;;;;;27.74;34.58;101162.28;10428417;28;20413;-75
2024/03/14 06:29:55;;;;;;;8.55;5.18;;;;;;;28.22;32.70;101162.63;10471286;28;20044;-76
2024/03/14 06:35:18;;;;;;;5.05;2.70;;;;;;;28.46;32.23;101173.13;10449084;28;20044;-75
2024/03/14 06:40:40;;;;;;;6.45;3.05;;;;;;;29.34;30.59;101174.78;10448460;28;20048;-75
2024/03/14 06:46:05;;;;;;;11.63;6.78;;;;;;;29.86;30.13;101159.97;10459832;28;20052;-76
2024/03/14 06:51:27;;;;;;;6.32;4.35;;;;;;;30.83;27.89;101167.75;10455941;28;20071;-75
2024/03/14 06:56:53;;;;;;;5.80;4.20;;;;;;;31.58;26.75;101165.69;10441351;28;20070;-75
2024/03/14 07:02:17;;;;;;;5.63;2.65;;;;;;;31.47;25.86;101168.25;10461714;28;20048;-75
2024/03/14 07:07:39;;;;;;;1.85;1.30;;;;;;;31.32;26.11;101166.50;10457795;28;20122;-75
2024/03/14 07:13:02;;;;;;;4.82;1.20;;;;;;;31.08;25.14;101168.94;10433850;28;20075;-76
2024/03/14 07:18:25;;;;;;;3.17;1.05;;;;;;;31.26;25.09;101165.03;10461520;28;20045;-76
2024/03/14 07:23:48;;;;;;;2.47;1.00;;;;;;;32.29;24.49;101168.25;10459123;28;20272;-76
2024/03/14 07:29:12;;;;;;;2.03;1.20;;;;;;;34.12;22.78;101169.56;10452464;28;20129;-76
2024/03/14 07:34:35;;;;;;;4.43;1.98;;;;;;;34.93;21.82;101166.88;10457581;28;20135;-75
2024/03/14 07:39:57;;;;;;;2.75;1.20;;;;;;;35.65;20.62;101171.03;10443270;28;20051;-76
2024/03/14 07:45:22;;;;;;;2.00;1.05;;;;;;;36.38;20.45;101180.50;10457805;28;20122;-76
2024/03/14 07:50:46;;;;;;;4.97;1.80;;;;;;;37.33;19.11;101173.94;10487288;28;20451;-75
2024/03/14 07:56:09;;;;;;;2.92;1.80;;;;;;;37.68;18.69;101173.53;10437898;28;20044;-76
2024/03/14 08:01:33;;;;;;;2.75;1.00;;;;;;;37.75;17.86;101172.78;10458041;28;20045;-75
2024/03/14 08:06:56;;;;;;;4.45;2.53;;;;;;;37.48;18.02;101161.53;10450398;28;20408;-76
2024/03/14 08:12:21;;;;;;;2.00;1.65;;;;;;;36.77;17.96;101154.16;10448542;28;20045;-75
2024/03/14 08:17:44;;;;;;;2.55;0.95;;;;;;;36.37;18.86;101154.84;10459665;28;20135;-75
2024/03/14 08:23:06;;;;;;;3.78;1.17;;;;;;;34.38;20.62;101149.28;10457227;28;20182;-76
2024/03/14 08:28:29;;;;;;;5.63;1.00;;;;;;;34.40;20.47;101166.47;10444320;28;20040;-77
2024/03/14 08:33:54;;;;;;;3.30;1.20;;;;;;;34.60;20.22;101157.56;10467307;28;20044;-77
2024/03/14 08:39:17;;;;;;;2.92;0.98;;;;;;;35.00;19.34;101158.03;10453048;28;20048;-76
2024/03/14 08:44:42;;;;;;;4.13;2.92;;;;;;;34.83;19.75;101160.41;10418625;28;20047;-76
2024/03/14 08:50:05;;;;;;;2.88;1.08;;;;;;;30.75;23.03;101155.53;10454392;28;20061;-76
2024/03/14 08:55:30;;;;;;;0.70;0.63;;;;;;;29.86;24.95;101151.78;10449181;28;20381;-76
2024/03/14 09:00:53;;;;;;;5.82;2.50;;;;;;;27.03;26.96;101148.53;10438524;28;20403;-75
2024/03/14 09:06:16;;;;;;;405.50;336.83;;;;;;;25.34;29.90;101145.75;10435799;28;20135;-75
2024/03/14 09:11:38;;;;;;;77.63;69.50;;;;;;;26.54;28.19;101150.72;10448338;28;20493;-79
2024/03/14 09:17:04;;;;;;;163.18;136.38;;;;;;;24.60;31.22;101151.28;10456126;28;20052;-77
2024/03/14 09:22:27;;;;;;;108.15;79.80;;;;;;;25.70;30.76;101150.69;10462009;28;20082;-76
2024/03/14 09:27:51;;;;;;;14.93;11.73;;;;;;;30.54;25.75;101157.75;10420486;28;20057;-76
2024/03/14 09:33:13;;;;;;;19.30;17.10;;;;;;;33.86;22.86;101147.78;10307858;28;20046;-77
2024/03/14 09:38:36;;;;;;;4.90;3.53;;;;;;;34.68;21.95;101135.00;10354604;28;20050;-77
2024/03/14 09:43:58;;;;;;;43.88;31.23;;;;;;;34.14;22.67;101123.72;10359769;28;20068;-78
2024/03/14 09:49:21;;;;;;;5.95;3.20;;;;;;;30.61;25.41;101118.22;10351876;28;20108;-76
2024/03/14 09:54:43;;;;;;;3.90;2.08;;;;;;;26.47;29.68;101117.59;10347786;28;20084;-77
2024/03/14 10:00:08;;;;;;;5.63;2.13;;;;;;;25.75;31.32;101111.66;10376407;28;20486;-77
2024/03/14 10:05:35;;;;;;;2.03;1.35;;;;;;;25.96;31.13;101112.59;10367276;28;20038;-77
2024/03/14 10:10:58;;;;;;;2.13;1.15;;;;;;;24.52;33.91;101119.16;10349650;28;20057;-78
2024/03/14 10:16:21;;;;;;;4.22;1.33;;;;;;;23.90;35.47;101120.41;10348757;28;20053;-78
2024/03/14 10:21:44;;;;;;;8.52;4.50;;;;;;;23.73;36.79;101124.56;10374631;28;20050;-78
2024/03/14 10:27:06;;;;;;;8.77;1.83;;;;;;;24.35;36.23;101118.00;10341384;28;20050;-77
2024/03/14 10:32:29;;;;;;;2.97;1.00;;;;;;;24.77;35.94;101116.41;10357795;28;20140;-77
2024/03/14 10:37:51;;;;;;;4.78;0.90;;;;;;;28.34;31.23;101103.13;10374519;28;20049;-78
2024/03/14 10:43:14;;;;;;;4.32;1.10;;;;;;;28.12;31.24;101118.72;10373442;28;20058;-78
2024/03/14 10:48:38;;;;;;;5.55;1.48;;;;;;;25.93;33.74;101101.88;10370022;28;20042;-76
2024/03/14 10:54:00;;;;;;;4.57;1.67;;;;;;;26.89;32.23;101103.97;10376069;28;20080;-78
2024/03/14 10:59:23;;;;;;;3.65;1.40;;;;;;;24.62;38.30;101106.16;10342727;28;20053;-75
2024/03/14 11:04:46;;;;;;;3.80;1.55;;;;;;;25.37;38.11;101088.88;10354150;28;20548;-75
2024/03/14 11:10:09;;;;;;;10.23;5.85;;;;;;;24.33;40.24;101077.56;10364492;28;20046;-75
2024/03/14 11:15:36;;;;;;;7.65;3.60;;;;;;;23.58;41.27;101073.84;10338666;28;20056;-74
2024/03/14 11:20:59;;;;;;;6.30;4.25;;;;;;;22.94;42.54;101064.19;10352777;28;20120;-74
2024/03/14 11:26:22;;;;;;;11.30;7.63;;;;;;;22.59;44.01;101067.88;10350136;28;20420;-75
2024/03/14 11:31:45;;;;;;;12.98;7.43;;;;;;;22.27;44.99;101066.09;10354752;28;20068;-76
2024/03/14 11:37:08;;;;;;;12.77;7.90;;;;;;;22.02;45.44;101062.31;10352471;28;20104;-75
2024/03/14 11:42:30;;;;;;;2.75;0.80;;;;;;;21.69;46.16;101053.28;10351355;28;20046;-75
2024/03/14 11:47:53;;;;;;;6.55;1.08;;;;;;;21.79;46.19;101049.47;10357418;28;20041;-76
2024/03/14 11:53:16;;;;;;;5.32;1.20;;;;;;;21.89;45.99;101048.28;10351172;28;20057;-76
2024/03/14 11:58:41;;;;;;;3.97;1.13;;;;;;;22.01;46.70;101049.81;10353155;28;20042;-75
2024/03/14 12:04:03;;;;;;;5.60;1.40;;;;;;;22.25;46.17;101041.94;10377285;28;20709;-77
2024/03/14 12:09:31;;;;;;;4.07;2.35;;;;;;;21.88;48.51;101027.69;10365239;28;20046;-77
2024/03/14 12:14:57;;;;;;;6.93;2.33;;;;;;;21.60;49.81;101049.03;10364905;28;20179;-76
2024/03/14 12:20:19;;;;;;;3.70;1.52;;;;;;;21.29;50.91;101040.84;10343950;28;20091;-76
2024/03/14 12:25:43;;;;;;;8.70;4.53;;;;;;;21.31;52.13;101048.88;10358705;28;20069;-76
2024/03/14 12:31:05;;;;;;;8.90;4.28;;;;;;;21.93;50.15;101049.97;10368041;28;20092;-77
2024/03/14 12:36:28;;;;;;;5.93;1.70;;;;;;;22.55;47.25;101042.00;10346233;28;20053;-77
2024/03/14 12:41:51;;;;;;;3.00;1.30;;;;;;;22.58;46.27;101045.47;10362100;28;20041;-77
2024/03/14 12:47:14;;;;;;;3.15;0.82;;;;;;;22.18;47.52;101047.56;10355678;28;20493;-77
2024/03/14 12:52:37;;;;;;;4.68;2.03;;;;;;;22.11;47.95;101052.22;10360567;28;20107;-78
2024/03/14 12:58:00;;;;;;;2.45;1.00;;;;;;;21.95;48.25;101053.50;10351991;28;20045;-78
2024/03/14 13:03:23;;;;;;;5.18;1.33;;;;;;;21.98;50.28;101060.66;10357716;28;20107;-77
2024/03/14 13:08:46;;;;;;;2.60;1.85;;;;;;;22.78;48.36;101069.13;10367686;28;20069;-78
2024/03/14 13:14:15;;;;;;;4.80;1.20;;;;;;;22.89;48.40;101068.84;10380718;28;20064;-78
2024/03/14 13:19:38;;;;;;;3.30;2.22;;;;;;;22.86;48.61;101072.50;10383956;28;20073;-77
2024/03/14 13:25:00;;;;;;;3.65;1.45;;;;;;;22.84;48.34;101078.88;10380518;28;20057;-77
2024/03/14 13:30:23;;;;;;;5.25;1.30;;;;;;;22.51;49.03;101069.94;10374332;28;20065;-77
2024/03/14 13:35:46;;;;;;;6.32;1.67;;;;;;;22.80;49.99;101061.03;10385849;28;20068;-77
2024/03/14 13:41:09;;;;;;;3.05;1.60;;;;;;;23.05;49.17;101067.44;10354659;28;20062;-77
2024/03/14 13:46:32;;;;;;;7.43;2.10;;;;;;;23.09;48.82;101070.91;10329272;28;20042;-76
2024/03/14 13:51:56;;;;;;;5.20;1.67;;;;;;;23.03;48.02;101067.50;10379907;28;20065;-76
2024/03/14 13:57:19;;;;;;;5.43;1.70;;;;;;;22.87;49.85;101060.78;10363101;28;20164;-75
2024/03/14 14:02:42;;;;;;;3.00;2.08;;;;;;;22.34;53.58;101066.81;10381962;28;20073;-75
2024/03/14 14:08:05;;;;;;;8.57;3.90;;;;;;;22.01;55.04;101072.19;10341463;28;20050;-76
2024/03/14 14:13:28;;;;;;;7.97;3.75;;;;;;;21.77;56.67;101062.94;10356581;28;20049;-75
2024/03/14 14:18:50;;;;;;;7.47;4.60;;;;;;;21.84;56.67;101063.66;10358684;28;20045;-76
2024/03/14 14:24:13;;;;;;;5.75;3.80;;;;;;;21.81;57.38;101061.03;10365607;28;20085;-76
2024/03/14 14:29:35;;;;;;;6.30;3.20;;;;;;;22.07;55.61;101066.66;10363435;28;20053;-76
2024/03/14 14:34:58;;;;;;;3.67;1.80;;;;;;;21.79;55.50;101065.59;10363716;28;20055;-76
2024/03/14 14:40:21;;;;;;;6.47;1.70;;;;;;;21.11;59.38;101078.84;10364400;28;20050;-76
2024/03/14 14:45:45;;;;;;;5.82;2.13;;;;;;;20.72;63.77;101080.59;10366199;28;20060;-76
2024/03/14 14:51:07;;;;;;;10.82;4.80;;;;;;;20.45;68.56;101082.03;10352840;28;20050;-77
2024/03/14 14:56:30;;;;;;;7.22;2.30;;;;;;;20.15;74.26;101078.09;10363640;28;20057;-76
2024/03/14 15:01:53;;;;;;;3.78;1.88;;;;;;;19.85;81.31;101076.88;10366262;28;20498;-76
2024/03/14 15:07:16;;;;;;;5.97;2.08;;;;;;;19.63;90.11;101082.59;10342270;28;20695;-76
2024/03/14 15:12:38;;;;;;;4.28;1.30;;;;;;;19.09;99.96;101082.53;10372025;28;20608;-76
2024/03/14 15:18:01;;;;;;;3.72;1.63;;;;;;;18.80;100.00;101098.97;10358554;28;20068;-75
2024/03/14 15:23:27;;;;;;;18.60;7.68;;;;;;;17.55;100.00;101099.28;10373153;28;20049;-77
2024/03/14 15:28:49;;;;;;;12.15;5.70;;;;;;;16.89;100.00;101122.81;10377203;28;20049;-78
2024/03/14 15:34:12;;;;;;;15.65;5.43;;;;;;;16.45;100.00;101138.94;10376366;28;20056;-82
2024/03/14 15:39:35;;;;;;;20.50;5.68;;;;;;;16.03;100.00;101150.53;10358608;28;20103;-77
2024/03/14 15:44:59;;;;;;;11.60;5.60;;;;;;;15.72;100.00;101146.97;10352202;28;20054;-76
2024/03/14 15:50:23;;;;;;;16.83;9.88;;;;;;;15.54;100.00;101144.31;10372840;28;20088;-77
2024/03/14 15:55:45;;;;;;;12.48;8.50;;;;;;;15.13;100.00;101150.38;10367545;28;20099;-78
2024/03/14 16:01:07;;;;;;;6.68;2.95;;;;;;;15.07;100.00;101162.75;10377100;28;20481;-78
2024/03/14 16:06:31;;;;;;;9.27;5.97;;;;;;;14.92;100.00;101160.03;10364028;28;20057;-78
2024/03/14 16:11:54;;;;;;;15.95;9.60;;;;;;;14.53;100.00;101152.75;10356043;28;20050;-77
2024/03/14 16:17:17;;;;;;;9.73;3.80;;;;;;;14.83;100.00;101163.56;10347063;28;20156;-77
2024/03/14 16:22:40;;;;;;;7.13;3.80;;;;;;;15.02;100.00;101165.41;10357229;28;20054;-77
2024/03/14 16:28:03;;;;;;;5.70;2.70;;;;;;;14.85;100.00;101164.44;10366165;28;20053;-77
2024/03/14 16:33:27;;;;;;;7.78;2.22;;;;;;;14.68;100.00;101166.13;10348571;28;20049;-77
2024/03/14 16:38:50;;;;;;;7.20;4.55;;;;;;;14.62;100.00;101168.75;10370693;28;20038;-78
2024/03/14 16:44:13;;;;;;;6.13;4.60;;;;;;;14.48;100.00;101159.81;10358596;28;20056;-77
2024/03/14 16:49:35;;;;;;;4.82;2.30;;;;;;;14.67;100.00;101167.00;10353568;28;20137;-77
2024/03/14 16:54:58;;;;;;;4.53;3.70;;;;;;;14.75;100.00;101166.19;10352075;28;72153;-72
2024/03/14 17:00:31;;;;;;;4.57;3.13;;;;;;;14.71;100.00;101167.03;10541058;27;20465;-78
2024/03/14 17:05:55;;;;;;;10.52;6.72;;;;;;;14.62;100.00;101187.38;10453546;28;20671;-78
2024/03/14 17:11:18;;;;;;;15.15;12.75;;;;;;;14.54;100.00;101182.00;10467241;28;20584;-79
2024/03/14 17:16:41;;;;;;;8.57;5.30;;;;;;;14.62;100.00;101179.41;10478363;28;20048;-78
2024/03/14 17:22:05;;;;;;;3.88;3.22;;;;;;;14.57;100.00;101187.31;10437598;28;20045;-78
2024/03/14 17:27:28;;;;;;;5.93;4.40;;;;;;;14.10;100.00;101188.72;10489823;28;20049;-79
2024/03/14 17:32:52;;;;;;;7.90;4.30;;;;;;;13.86;100.00;101198.25;10451169;28;20564;-77
2024/03/14 17:38:17;;;;;;;6.43;3.65;;;;;;;13.79;100.00;101214.09;10455583;28;20049;-77
2024/03/14 17:43:40;;;;;;;6.43;4.32;;;;;;;13.46;100.00;101204.91;10454031;28;20044;-77
2024/03/14 17:49:05;;;;;;;5.35;3.63;;;;;;;13.30;100.00;101226.84;10459013;28;20053;-76
2024/03/14 17:54:28;;;;;;;3.47;2.42;;;;;;;13.54;100.00;101234.19;10451808;28;20128;-76
2024/03/14 17:59:50;;;;;;;7.07;3.88;;;;;;;13.67;100.00;101238.75;10455871;28;20497;-76
2024/03/14 18:05:13;;;;;;;4.40;2.53;;;;;;;13.69;100.00;101249.38;10475328;28;20127;-76
2024/03/14 18:10:36;;;;;;;4.75;4.05;;;;;;;13.39;100.00;101258.75;10452344;28;20098;-76
2024/03/14 18:15:59;;;;;;;5.55;3.80;;;;;;;13.13;100.00;101266.38;10409576;28;20041;-77
2024/03/14 18:21:21;;;;;;;5.22;3.63;;;;;;;12.98;100.00;101265.28;10405243;28;20040;-76
2024/03/14 18:26:44;;;;;;;6.13;3.50;;;;;;;12.88;100.00;101273.94;10397269;28;20080;-77
2024/03/14 18:32:12;;;;;;;20.67;18.63;;;;;;;12.92;100.00;101281.09;10436485;28;20041;-76
2024/03/14 18:37:35;;;;;;;32.92;29.42;;;;;;;12.89;100.00;101287.22;10416914;28;20056;-76
2024/03/14 18:42:58;;;;;;;36.33;30.88;;;;;;;12.99;100.00;101290.91;10417482;28;20126;-76
2024/03/14 18:48:21;;;;;;;13.38;10.85;;;;;;;12.96;100.00;101288.19;10439606;28;20052;-76
2024/03/14 18:53:43;;;;;;;11.20;9.05;;;;;;;12.92;100.00;101294.34;10422051;28;20103;-76
2024/03/14 18:59:09;;;;;;;14.63;10.82;;;;;;;12.83;100.00;101297.72;10437827;28;20084;-77
2024/03/14 19:04:32;;;;;;;10.02;7.38;;;;;;;12.61;100.00;101307.09;10413019;28;20048;-76
2024/03/14 19:09:55;;;;;;;14.27;12.05;;;;;;;12.63;100.00;101309.78;10399522;28;20045;-78
2024/03/14 19:15:17;;;;;;;46.47;41.95;;;;;;;12.76;100.00;101303.81;10439686;28;20493;-77
2024/03/14 19:20:40;;;;;;;33.08;29.67;;;;;;;12.69;100.00;101318.72;10422945;28;20037;-77
2024/03/14 19:26:03;;;;;;;23.65;21.33;;;;;;;12.33;100.00;101316.38;10404860;28;20489;-77
2024/03/14 19:31:30;;;;;;;50.33;45.03;;;;;;;12.39;100.00;101328.81;10415054;28;20051;-76
2024/03/14 19:36:52;;;;;;;19.52;17.52;;;;;;;12.29;100.00;101330.41;10420805;28;20048;-77
2024/03/14 19:42:17;;;;;;;17.25;15.18;;;;;;;12.41;100.00;101336.75;10411863;28;20178;-76
2024/03/14 19:47:44;;;;;;;27.92;25.13;;;;;;;12.57;100.00;101334.41;10412578;28;20051;-77
2024/03/14 19:53:07;;;;;;;15.73;13.80;;;;;;;12.56;100.00;101334.38;10438198;28;20056;-76
2024/03/14 19:58:29;;;;;;;88.65;80.85;;;;;;;12.37;100.00;101317.28;10451423;28;20056;-77
2024/03/14 20:03:52;;;;;;;21.48;19.23;;;;;;;12.22;100.00;101327.59;10412163;28;20049;-77
2024/03/14 20:09:15;;;;;;;24.08;21.58;;;;;;;12.24;100.00;101328.53;10437931;28;20045;-78
2024/03/14 20:14:37;;;;;;;99.13;90.57;;;;;;;12.13;100.00;101322.16;10411439;28;20052;-77
2024/03/14 20:20:00;;;;;;;29.40;26.33;;;;;;;11.86;100.00;101334.00;10431909;28;20072;-76
2024/03/14 20:25:22;;;;;;;15.07;10.48;;;;;;;11.74;100.00;101340.81;10400483;28;20489;-77
2024/03/14 20:30:45;;;;;;;7.65;5.93;;;;;;;11.99;100.00;101337.78;10428377;28;20053;-76
2024/03/14 20:36:10;;;;;;;14.23;12.73;;;;;;;12.15;100.00;101334.53;10419766;28;20841;-76
2024/03/14 20:41:33;;;;;;;8.55;6.78;;;;;;;12.21;100.00;101337.28;10401770;28;20049;-76
2024/03/14 20:46:56;;;;;;;10.25;5.80;;;;;;;12.43;100.00;101322.69;10425480;28;20053;-76
2024/03/14 20:52:18;;;;;;;5.55;3.63;;;;;;;12.34;100.00;101341.06;10430045;28;20056;-75
2024/03/14 20:57:41;;;;;;;7.00;3.65;;;;;;;12.35;100.00;101327.84;10432310;28;20122;-75
2024/03/14 21:03:04;;;;;;;5.35;2.30;;;;;;;12.31;100.00;101317.19;10386645;28;20045;-76
2024/03/14 21:08:27;;;;;;;10.13;5.20;;;;;;;12.32;100.00;101325.16;10382664;28;20049;-76
2024/03/14 21:13:49;;;;;;;12.57;8.68;;;;;;;12.36;100.00;101323.44;10392433;28;20588;-76
2024/03/14 21:19:12;;;;;;;14.80;7.97;;;;;;;12.34;100.00;101323.41;10391793;28;20077;-76
2024/03/14 21:24:34;;;;;;;6.63;4.00;;;;;;;12.12;100.00;101320.38;10406377;28;20065;-76
2024/03/14 21:29:57;;;;;;;9.18;4.85;;;;;;;12.19;100.00;101312.59;10422861;28;20052;-77
2024/03/14 21:35:22;;;;;;;17.17;15.40;;;;;;;11.80;100.00;101311.84;10418674;28;20049;-75
2024/03/14 21:40:45;;;;;;;20.92;18.83;;;;;;;11.65;100.00;101320.31;10431017;28;20056;-76
2024/03/14 21:46:09;;;;;;;9.13;3.45;;;;;;;11.68;100.00;101336.28;10425495;28;20045;-75
2024/03/14 21:51:32;;;;;;;9.38;5.70;;;;;;;11.68;100.00;101332.72;10441207;28;20504;-76
2024/03/14 21:56:55;;;;;;;5.57;2.85;;;;;;;11.74;100.00;101325.84;10394936;28;20072;-75
2024/03/14 22:02:17;;;;;;;7.20;3.72;;;;;;;11.92;100.00;101331.47;10424115;28;20041;-75
2024/03/14 22:07:40;;;;;;;6.57;2.50;;;;;;;11.83;100.00;101319.81;10426516;28;20057;-76
2024/03/14 22:13:02;;;;;;;7.13;2.30;;;;;;;11.54;100.00;101322.75;10453330;28;20052;-75
2024/03/14 22:18:25;;;;;;;8.07;2.97;;;;;;;11.53;100.00;101330.66;10425958;28;20051;-75
2024/03/14 22:23:48;;;;;;;8.13;3.00;;;;;;;11.51;100.00;101338.53;10425807;28;20053;-75
2024/03/14 22:29:11;;;;;;;5.63;2.40;;;;;;;11.63;100.00;101335.25;10437766;28;20063;-76
2024/03/14 22:34:37;;;;;;;6.00;2.50;;;;;;;11.52;100.00;101318.28;10461150;28;20053;-76
2024/03/14 22:39:59;;;;;;;46.13;41.97;;;;;;;11.69;100.00;101323.91;10450979;28;20049;-75
2024/03/14 22:45:22;;;;;;;6.72;3.20;;;;;;;11.62;100.00;101325.53;10406001;28;20060;-75
2024/03/14 22:50:44;;;;;;;8.70;2.20;;;;;;;11.68;100.00;101319.50;10422820;28;20060;-75
2024/03/14 22:56:07;;;;;;;8.02;2.30;;;;;;;11.75;100.00;101324.09;10410907;28;20053;-75
2024/03/14 23:01:34;;;;;;;12.48;7.47;;;;;;;11.86;100.00;101319.91;10424266;28;20047;-75
2024/03/14 23:06:58;;;;;;;53.83;48.47;;;;;;;11.97;100.00;101306.00;10425817;28;20061;-76
2024/03/14 23:12:20;;;;;;;10.13;7.38;;;;;;;11.89;100.00;101310.25;10423070;28;20041;-75
2024/03/14 23:17:43;;;;;;;10.00;6.13;;;;;;;12.01;100.00;101308.72;10409397;28;20146;-75
2024/03/14 23:23:06;;;;;;;27.50;23.20;;;;;;;12.10;100.00;101303.56;10420104;28;20374;-75
2024/03/14 23:28:29;;;;;;;3.78;2.72;;;;;;;12.14;100.00;101302.78;10408763;28;20068;-76
2024/03/14 23:33:54;;;;;;;4.50;1.83;;;;;;;12.07;100.00;101296.50;10409216;28;20076;-75
2024/03/14 23:39:17;;;;;;;10.65;9.50;;;;;;;12.01;100.00;101287.53;10412741;28;20508;-75
2024/03/14 23:44:40;;;;;;;5.45;1.90;;;;;;;11.74;100.00;101283.53;10425639;28;20051;-75
2024/03/14 23:50:04;;;;;;;3.65;2.17;;;;;;;11.33;100.00;101277.38;10436154;28;20072;-76
2024/03/14 23:55:27;;;;;;;6.43;2.35;;;;;;;11.37;100.00;101283.59;10375849;28;20041;-76
